Time;durP1;ratioP1;P1;durP2;ratioP2;P2;SDS_P1;SDS_P2;PMS_P1;PMS_P2;Temp;Humidity;BMP_temperature;BMP_pressure;BME280_temperature;BME280_humidity;BME280_pressure;Samples;Min_cycle;Max_cycle;Signal;HPM_P1;HPM_P2
2021/10/06 00:00:05;;;;;;;2.00;1.70;;;;;;;;;;5049701;28;21861;-68
2021/10/06 00:02:32;;;;;;;4.50;1.20;;;;;;;;;;5062715;28;20325;-68
2021/10/06 00:04:58;;;;;;;5.47;1.90;;;;;;;;;;5065826;28;20055;-68
2021/10/06 00:07:25;;;;;;;3.17;2.10;;;;;;;;;;5057456;28;20132;-68
2021/10/06 00:09:52;;;;;;;2.80;1.80;;;;;;;;;;5056462;28;20558;-68
2021/10/06 00:12:18;;;;;;;2.90;1.50;;;;;;;;;;5063874;28;20517;-68
2021/10/06 00:14:45;;;;;;;2.80;1.60;;;;;;;;;;5062835;28;20167;-68
2021/10/06 00:17:21;;;;;;;2.58;1.60;;;;;;;;;;5059190;28;20052;-68
2021/10/06 00:19:47;;;;;;;2.27;1.77;;;;;;;;;;5065570;28;20071;-68
2021/10/06 00:22:14;;;;;;;2.75;1.80;;;;;;;;;;5065091;28;20341;-69
2021/10/06 00:24:41;;;;;;;2.63;1.40;;;;;;;;;;5061370;28;20050;-68
2021/10/06 00:27:07;;;;;;;5.05;1.88;;;;;;;;;;5049331;28;20131;-68
2021/10/06 00:29:34;;;;;;;4.40;2.00;;;;;;;;;;5062153;28;20163;-68
2021/10/06 00:32:01;;;;;;;4.68;2.25;;;;;;;;;;5060789;28;20512;-68
2021/10/06 00:34:27;;;;;;;5.77;2.20;;;;;;;;;;5064820;28;20049;-68
2021/10/06 00:36:54;;;;;;;6.18;2.35;;;;;;;;;;5064060;28;20084;-68
2021/10/06 00:39:20;;;;;;;2.33;1.85;;;;;;;;;;5068397;28;20179;-68
2021/10/06 00:41:46;;;;;;;3.33;1.75;;;;;;;;;;5063884;28;20132;-68
2021/10/06 00:44:20;;;;;;;3.03;2.00;;;;;;;;;;5065331;28;20076;-69
2021/10/06 00:46:47;;;;;;;5.57;2.17;;;;;;;;;;5066652;28;20075;-68
2021/10/06 00:49:13;;;;;;;3.58;2.42;;;;;;;;;;5070457;28;20087;-69
2021/10/06 00:51:40;;;;;;;2.50;2.30;;;;;;;;;;5067774;28;20663;-69
2021/10/06 00:54:06;;;;;;;3.20;2.25;;;;;;;;;;5067863;28;20199;-68
2021/10/06 00:56:33;;;;;;;3.42;2.58;;;;;;;;;;5068805;28;20135;-68
2021/10/06 00:59:00;;;;;;;7.13;3.10;;;;;;;;;;5064670;28;20059;-69
2021/10/06 01:01:26;;;;;;;4.18;2.55;;;;;;;;;;5062723;28;20504;-69
2021/10/06 01:03:54;;;;;;;4.13;2.40;;;;;;;;;;5063911;28;20045;-69
2021/10/06 01:06:20;;;;;;;3.25;2.40;;;;;;;;;;5061711;28;20072;-68
2021/10/06 01:08:46;;;;;;;3.15;2.50;;;;;;;;;;5066953;28;20166;-68
2021/10/06 01:11:13;;;;;;;4.32;2.90;;;;;;;;;;5062985;28;20132;-69
2021/10/06 01:13:40;;;;;;;5.22;2.70;;;;;;;;;;5064379;28;20465;-68
2021/10/06 01:16:06;;;;;;;5.47;2.72;;;;;;;;;;5057127;28;20543;-68
2021/10/06 01:18:33;;;;;;;5.10;2.80;;;;;;;;;;5066093;28;20464;-68
2021/10/06 01:21:08;;;;;;;6.00;2.78;;;;;;;;;;5067844;28;20049;-68
2021/10/06 01:23:35;;;;;;;4.25;2.90;;;;;;;;;;5064836;28;20131;-68
2021/10/06 01:26:02;;;;;;;3.95;2.97;;;;;;;;;;5065597;28;20219;-68
2021/10/06 01:28:28;;;;;;;5.40;3.00;;;;;;;;;;5066186;28;20075;-68
2021/10/06 01:30:55;;;;;;;5.90;3.03;;;;;;;;;;5069625;28;20382;-69
2021/10/06 01:33:21;;;;;;;4.05;3.13;;;;;;;;;;5063916;28;20072;-68
2021/10/06 01:35:48;;;;;;;8.25;3.30;;;;;;;;;;5065331;28;20047;-68
2021/10/06 01:38:17;;;;;;;4.55;3.13;;;;;;;;;;5065336;28;20123;-68
2021/10/06 01:40:43;;;;;;;6.82;3.90;;;;;;;;;;5063679;28;20127;-68
2021/10/06 01:43:09;;;;;;;7.18;3.50;;;;;;;;;;5067417;28;20567;-68
2021/10/06 01:45:39;;;;;;;7.72;3.60;;;;;;;;;;5068750;28;20131;-68
2021/10/06 01:48:10;;;;;;;7.85;4.05;;;;;;;;;;5061168;28;20083;-68
2021/10/06 01:50:37;;;;;;;6.93;4.28;;;;;;;;;;5063778;28;20087;-68
2021/10/06 01:53:04;;;;;;;7.47;4.07;;;;;;;;;;5063344;28;20564;-68
2021/10/06 01:55:31;;;;;;;7.97;3.63;;;;;;;;;;5064279;28;20096;-68
2021/10/06 01:57:59;;;;;;;6.10;4.22;;;;;;;;;;5066951;28;20087;-68
2021/10/06 02:00:26;;;;;;;10.18;4.47;;;;;;;;;;5066605;28;20147;-68
2021/10/06 02:02:53;;;;;;;10.93;5.00;;;;;;;;;;5067451;28;20044;-68
2021/10/06 02:05:21;;;;;;;6.70;4.25;;;;;;;;;;5063889;28;20052;-68
2021/10/06 02:07:47;;;;;;;6.70;4.70;;;;;;;;;;5065987;28;20139;-68
2021/10/06 02:10:13;;;;;;;11.45;4.90;;;;;;;;;;5069340;28;20123;-68
2021/10/06 02:12:40;;;;;;;6.75;4.60;;;;;;;;;;5065752;28;20052;-68
2021/10/06 02:15:07;;;;;;;8.98;4.93;;;;;;;;;;5067591;28;20132;-68
2021/10/06 02:17:33;;;;;;;12.23;5.07;;;;;;;;;;5065754;28;20091;-68
2021/10/06 02:20:00;;;;;;;8.75;5.15;;;;;;;;;;5063578;28;20128;-68
2021/10/06 02:22:27;;;;;;;8.13;4.40;;;;;;;;;;5065345;28;20085;-68
2021/10/06 02:24:53;;;;;;;17.83;4.72;;;;;;;;;;5057549;28;20079;-68
2021/10/06 02:27:20;;;;;;;8.80;5.05;;;;;;;;;;5064889;28;20083;-68
2021/10/06 02:29:46;;;;;;;10.15;4.85;;;;;;;;;;5067526;28;20131;-68
2021/10/06 02:32:13;;;;;;;11.88;4.90;;;;;;;;;;5059528;28;20468;-68
2021/10/06 02:34:39;;;;;;;12.88;5.68;;;;;;;;;;5062872;28;20068;-68
2021/10/06 02:37:06;;;;;;;33.43;7.17;;;;;;;;;;5064869;28;20079;-68
2021/10/06 02:39:32;;;;;;;462.67;22.20;;;;;;;;;;5063761;28;20511;-68
2021/10/06 02:41:59;;;;;;;74.30;8.23;;;;;;;;;;5059603;28;20087;-68
2021/10/06 02:44:26;;;;;;;40.17;7.20;;;;;;;;;;5070896;28;20045;-68
2021/10/06 02:46:52;;;;;;;17.25;6.70;;;;;;;;;;5068426;28;20086;-68
2021/10/06 02:49:19;;;;;;;10.95;5.90;;;;;;;;;;5068908;28;20136;-68
2021/10/06 02:51:45;;;;;;;10.95;6.47;;;;;;;;;;5067712;28;20166;-68
2021/10/06 02:54:12;;;;;;;9.90;6.30;;;;;;;;;;5061186;28;20123;-68
2021/10/06 02:56:38;;;;;;;8.20;5.85;;;;;;;;;;5067919;28;20083;-68
2021/10/06 02:59:05;;;;;;;11.57;6.32;;;;;;;;;;5064451;28;20123;-68
2021/10/06 03:01:31;;;;;;;9.20;5.90;;;;;;;;;;5062724;28;20079;-68
2021/10/06 03:03:58;;;;;;;15.63;6.63;;;;;;;;;;5062330;28;20049;-68
2021/10/06 03:06:24;;;;;;;14.98;5.53;;;;;;;;;;5060228;28;20123;-68
2021/10/06 03:08:51;;;;;;;12.38;6.20;;;;;;;;;;5065901;28;20091;-68
2021/10/06 03:11:17;;;;;;;8.55;6.15;;;;;;;;;;5063772;28;20123;-68
2021/10/06 03:13:44;;;;;;;19.27;7.88;;;;;;;;;;5060010;28;20080;-68
2021/10/06 03:16:10;;;;;;;16.63;6.70;;;;;;;;;;5062257;28;20083;-68
2021/10/06 03:18:37;;;;;;;21.15;7.63;;;;;;;;;;5064607;28;20132;-68
2021/10/06 03:21:03;;;;;;;18.03;6.83;;;;;;;;;;5063060;28;20076;-68
2021/10/06 03:23:30;;;;;;;14.60;7.10;;;;;;;;;;5067373;28;20377;-68
2021/10/06 03:25:56;;;;;;;12.52;6.57;;;;;;;;;;5065183;28;20088;-69
2021/10/06 03:28:23;;;;;;;16.70;7.45;;;;;;;;;;5061771;28;20045;-68
2021/10/06 03:30:49;;;;;;;33.22;8.20;;;;;;;;;;5065670;28;20123;-68
2021/10/06 03:33:16;;;;;;;20.00;7.93;;;;;;;;;;5065467;28;20091;-69
2021/10/06 03:35:42;;;;;;;26.63;7.60;;;;;;;;;;5065312;28;20087;-69
2021/10/06 03:38:09;;;;;;;26.42;8.20;;;;;;;;;;5063682;28;20139;-69
2021/10/06 03:40:35;;;;;;;48.80;9.43;;;;;;;;;;5058435;28;20086;-69
2021/10/06 03:43:02;;;;;;;18.83;7.30;;;;;;;;;;5069468;28;20056;-69
2021/10/06 03:45:29;;;;;;;44.53;8.18;;;;;;;;;;5062871;28;20095;-69
2021/10/06 03:47:55;;;;;;;25.98;7.82;;;;;;;;;;5066944;28;20166;-69
2021/10/06 03:50:22;;;;;;;16.98;7.15;;;;;;;;;;5048886;28;20091;-68
2021/10/06 03:52:48;;;;;;;45.45;7.85;;;;;;;;;;5062470;28;20127;-69
2021/10/06 03:55:15;;;;;;;31.60;7.97;;;;;;;;;;5062827;28;20135;-68
2021/10/06 03:57:41;;;;;;;33.28;7.85;;;;;;;;;;5060845;28;20080;-68
2021/10/06 04:00:09;;;;;;;246.32;15.63;;;;;;;;;;5059229;28;20168;-68
2021/10/06 04:02:35;;;;;;;127.45;10.77;;;;;;;;;;5072761;28;20124;-69
2021/10/06 04:05:01;;;;;;;29.33;7.88;;;;;;;;;;5061703;28;20076;-69
2021/10/06 04:07:28;;;;;;;47.60;9.30;;;;;;;;;;5067257;28;20056;-69
2021/10/06 04:09:54;;;;;;;48.38;9.70;;;;;;;;;;5065594;28;20049;-69
2021/10/06 04:12:21;;;;;;;46.83;9.88;;;;;;;;;;5067453;28;20573;-69
2021/10/06 04:14:47;;;;;;;34.63;8.65;;;;;;;;;;5061929;28;20139;-69
2021/10/06 04:17:15;;;;;;;28.35;8.88;;;;;;;;;;5061392;28;20456;-69
2021/10/06 04:19:41;;;;;;;25.27;8.55;;;;;;;;;;5060477;28;20048;-69
2021/10/06 04:22:08;;;;;;;13.88;6.78;;;;;;;;;;5059284;28;20163;-69
2021/10/06 04:24:35;;;;;;;39.83;8.60;;;;;;;;;;5056337;28;20081;-69
2021/10/06 04:27:01;;;;;;;21.45;8.02;;;;;;;;;;5063092;28;20131;-69
2021/10/06 04:29:28;;;;;;;13.63;7.15;;;;;;;;;;5064526;28;20083;-68
2021/10/06 04:31:54;;;;;;;21.83;8.32;;;;;;;;;;5061843;28;20866;-69
2021/10/06 04:34:21;;;;;;;29.23;8.93;;;;;;;;;;5059429;28;20104;-68
2021/10/06 04:36:48;;;;;;;13.20;6.95;;;;;;;;;;5065839;28;20127;-68
2021/10/06 04:39:14;;;;;;;16.63;6.87;;;;;;;;;;5063067;28;20146;-69
2021/10/06 04:41:41;;;;;;;17.70;7.47;;;;;;;;;;5060007;28;20084;-68
2021/10/06 04:44:07;;;;;;;20.83;8.77;;;;;;;;;;5063275;28;20136;-69
2021/10/06 04:46:33;;;;;;;16.13;7.78;;;;;;;;;;5060360;28;20076;-68
2021/10/06 04:49:02;;;;;;;14.45;7.20;;;;;;;;;;5066463;28;20076;-68
2021/10/06 04:51:28;;;;;;;27.65;8.43;;;;;;;;;;5066638;28;20139;-68
2021/10/06 04:53:55;;;;;;;11.63;6.10;;;;;;;;;;5059653;28;20123;-68
2021/10/06 04:56:21;;;;;;;11.90;6.40;;;;;;;;;;5060764;28;20088;-68
2021/10/06 04:58:48;;;;;;;15.43;7.60;;;;;;;;;;5062012;28;20119;-68
2021/10/06 05:01:14;;;;;;;12.95;6.53;;;;;;;;;;5061958;28;20132;-68
2021/10/06 05:03:41;;;;;;;20.00;7.75;;;;;;;;;;5062230;28;20041;-69
2021/10/06 05:06:12;;;;;;;130.70;13.15;;;;;;;;;;5060737;28;20060;-69
2021/10/06 05:08:38;;;;;;;36.55;8.23;;;;;;;;;;5063858;28;20088;-69
2021/10/06 05:11:05;;;;;;;26.08;8.02;;;;;;;;;;5064379;28;20131;-69
2021/10/06 05:13:31;;;;;;;17.70;7.90;;;;;;;;;;5061752;28;20551;-68
2021/10/06 05:15:58;;;;;;;14.55;6.80;;;;;;;;;;5054557;28;20140;-68
2021/10/06 05:18:25;;;;;;;10.30;6.77;;;;;;;;;;5050891;28;20088;-68
2021/10/06 05:20:52;;;;;;;16.42;6.55;;;;;;;;;;5057579;28;20390;-68
2021/10/06 05:23:18;;;;;;;8.43;5.57;;;;;;;;;;5057046;28;20139;-68
2021/10/06 05:25:44;;;;;;;8.55;5.50;;;;;;;;;;5068701;28;20135;-68
2021/10/06 05:28:11;;;;;;;11.98;6.38;;;;;;;;;;5064943;28;20149;-68
2021/10/06 05:30:37;;;;;;;14.02;5.75;;;;;;;;;;5064973;28;20152;-68
2021/10/06 05:33:04;;;;;;;12.20;5.43;;;;;;;;;;5065869;28;20131;-68
2021/10/06 05:35:30;;;;;;;6.97;5.00;;;;;;;;;;5067015;28;20056;-68
2021/10/06 05:37:57;;;;;;;13.52;5.35;;;;;;;;;;5064350;28;20084;-69
2021/10/06 05:40:23;;;;;;;8.55;5.40;;;;;;;;;;5068379;28;20104;-68
2021/10/06 05:42:50;;;;;;;7.60;5.68;;;;;;;;;;5066283;28;20088;-68
2021/10/06 05:45:16;;;;;;;8.32;5.32;;;;;;;;;;5063780;28;20606;-68
2021/10/06 05:47:42;;;;;;;8.75;4.80;;;;;;;;;;5068774;28;20498;-68
2021/10/06 05:50:09;;;;;;;8.68;4.85;;;;;;;;;;5065432;28;20079;-68
2021/10/06 05:52:36;;;;;;;10.70;5.40;;;;;;;;;;5066810;28;20136;-69
2021/10/06 05:55:04;;;;;;;6.18;4.15;;;;;;;;;;5062436;28;20128;-69
2021/10/06 05:57:30;;;;;;;8.13;4.90;;;;;;;;;;5067738;28;20131;-69
2021/10/06 05:59:57;;;;;;;5.67;4.40;;;;;;;;;;5062115;28;20174;-68
2021/10/06 06:02:23;;;;;;;4.43;3.40;;;;;;;;;;5063876;28;20127;-69
2021/10/06 06:04:49;;;;;;;5.15;3.42;;;;;;;;;;5064380;28;20491;-69
2021/10/06 06:07:16;;;;;;;7.85;4.57;;;;;;;;;;5062733;28;20080;-69
2021/10/06 06:09:42;;;;;;;6.35;4.10;;;;;;;;;;5068711;28;20552;-68
2021/10/06 06:12:11;;;;;;;4.60;2.90;;;;;;;;;;5065608;28;20050;-69
2021/10/06 06:14:39;;;;;;;3.67;3.08;;;;;;;;;;5061499;28;20136;-68
2021/10/06 06:17:06;;;;;;;6.00;3.30;;;;;;;;;;5064379;28;20152;-69
2021/10/06 06:19:33;;;;;;;4.70;3.05;;;;;;;;;;5068351;28;20149;-69
2021/10/06 06:21:59;;;;;;;3.87;3.00;;;;;;;;;;5065150;28;20110;-69
2021/10/06 06:24:27;;;;;;;4.40;3.75;;;;;;;;;;5065774;28;20048;-68
2021/10/06 06:26:56;;;;;;;4.88;2.70;;;;;;;;;;5064461;28;20084;-69
2021/10/06 06:29:22;;;;;;;6.43;3.28;;;;;;;;;;5064326;28;20084;-69
2021/10/06 06:31:49;;;;;;;5.30;3.58;;;;;;;;;;5066910;28;20131;-68
2021/10/06 06:34:16;;;;;;;6.72;3.38;;;;;;;;;;5064620;28;20244;-69
2021/10/06 06:36:42;;;;;;;3.03;2.70;;;;;;;;;;5067349;28;20087;-68
2021/10/06 06:39:08;;;;;;;3.70;3.33;;;;;;;;;;5065572;28;20331;-68
2021/10/06 06:41:35;;;;;;;4.30;3.30;;;;;;;;;;5061163;28;20131;-68
2021/10/06 06:44:02;;;;;;;9.23;3.95;;;;;;;;;;5064201;28;20047;-68
2021/10/06 06:46:29;;;;;;;6.95;3.30;;;;;;;;;;5062277;28;20136;-69
2021/10/06 06:48:55;;;;;;;3.67;3.03;;;;;;;;;;5065653;28;20135;-68
2021/10/06 06:51:22;;;;;;;7.13;3.60;;;;;;;;;;5062481;28;20149;-68
2021/10/06 06:53:49;;;;;;;7.75;3.90;;;;;;;;;;5067433;28;20076;-68
2021/10/06 06:56:15;;;;;;;9.85;3.58;;;;;;;;;;5062539;28;20081;-68
2021/10/06 06:58:42;;;;;;;7.32;3.95;;;;;;;;;;5064221;28;20077;-68
2021/10/06 07:01:08;;;;;;;5.28;3.15;;;;;;;;;;5054725;28;20204;-68
2021/10/06 07:03:36;;;;;;;3.78;3.38;;;;;;;;;;5061895;28;20407;-68
2021/10/06 07:06:03;;;;;;;6.97;3.78;;;;;;;;;;5063929;28;20127;-68
2021/10/06 07:08:29;;;;;;;4.07;3.20;;;;;;;;;;5060263;28;20129;-68
2021/10/06 07:10:55;;;;;;;7.90;4.07;;;;;;;;;;5064264;28;20074;-68
2021/10/06 07:13:30;;;;;;;6.05;3.95;;;;;;;;;;5062087;28;20460;-68
2021/10/06 07:15:57;;;;;;;4.05;3.63;;;;;;;;;;5063449;28;20550;-68
2021/10/06 07:18:23;;;;;;;6.57;3.37;;;;;;;;;;5066615;28;20531;-68
2021/10/06 07:20:49;;;;;;;4.40;3.65;;;;;;;;;;5061483;28;20386;-68
2021/10/06 07:23:16;;;;;;;7.03;3.90;;;;;;;;;;5059833;28;20509;-68
2021/10/06 07:25:43;;;;;;;4.35;2.95;;;;;;;;;;5058423;28;20132;-68
2021/10/06 07:28:10;;;;;;;4.05;3.35;;;;;;;;;;5069067;28;20087;-69
2021/10/06 07:30:36;;;;;;;7.93;3.22;;;;;;;;;;5060134;28;20453;-69
2021/10/06 07:33:02;;;;;;;5.88;3.38;;;;;;;;;;5058504;28;20086;-69
2021/10/06 07:35:29;;;;;;;4.25;3.20;;;;;;;;;;5063007;28;20087;-69
2021/10/06 07:37:55;;;;;;;4.72;2.42;;;;;;;;;;5061164;28;20057;-69
2021/10/06 07:40:23;;;;;;;4.75;2.30;;;;;;;;;;5063625;28;20044;-69
2021/10/06 07:42:50;;;;;;;2.95;2.65;;;;;;;;;;5062493;28;20117;-69
2021/10/06 07:45:16;;;;;;;4.43;2.22;;;;;;;;;;5065163;28;20044;-69
2021/10/06 07:47:43;;;;;;;2.80;1.90;;;;;;;;;;5066981;28;20111;-69
2021/10/06 07:50:09;;;;;;;3.22;2.30;;;;;;;;;;5057180;28;20128;-69
2021/10/06 07:52:36;;;;;;;2.22;2.03;;;;;;;;;;5060108;28;20126;-69
2021/10/06 07:55:05;;;;;;;2.80;2.30;;;;;;;;;;5062976;28;20082;-69
2021/10/06 07:57:31;;;;;;;4.47;2.70;;;;;;;;;;5061658;28;20372;-69
2021/10/06 07:59:57;;;;;;;3.45;3.10;;;;;;;;;;5063642;28;20044;-69
2021/10/06 08:02:25;;;;;;;4.07;3.28;;;;;;;;;;5062456;28;20131;-69
2021/10/06 08:04:52;;;;;;;5.10;3.40;;;;;;;;;;5057757;28;20063;-69
2021/10/06 08:07:19;;;;;;;7.70;3.95;;;;;;;;;;5062127;28;20049;-69
2021/10/06 08:09:45;;;;;;;5.88;3.50;;;;;;;;;;5057342;28;20110;-69
2021/10/06 08:12:12;;;;;;;9.15;3.75;;;;;;;;;;5067186;28;20052;-69
2021/10/06 08:14:38;;;;;;;5.25;4.10;;;;;;;;;;5057914;28;20084;-70
2021/10/06 08:17:05;;;;;;;3.78;3.38;;;;;;;;;;5051479;28;20095;-69
2021/10/06 08:19:31;;;;;;;7.15;2.97;;;;;;;;;;5034331;28;20161;-70
2021/10/06 08:21:58;;;;;;;5.20;2.80;;;;;;;;;;5036389;28;20132;-70
2021/10/06 08:24:29;;;;;;;6.15;2.92;;;;;;;;;;5043298;28;20061;-70
2021/10/06 08:26:56;;;;;;;3.22;2.92;;;;;;;;;;5045173;28;20080;-70
2021/10/06 08:29:23;;;;;;;6.60;3.50;;;;;;;;;;5041508;28;20128;-69
2021/10/06 08:31:49;;;;;;;5.70;2.80;;;;;;;;;;5041355;28;20141;-69
2021/10/06 08:34:16;;;;;;;7.75;3.63;;;;;;;;;;5041627;28;20099;-69
2021/10/06 08:36:42;;;;;;;3.00;2.70;;;;;;;;;;5046443;28;20137;-69
2021/10/06 08:39:09;;;;;;;9.13;2.70;;;;;;;;;;5036806;28;20085;-69
2021/10/06 08:41:36;;;;;;;5.05;2.25;;;;;;;;;;5043974;28;20049;-69
2021/10/06 08:44:03;;;;;;;5.57;2.88;;;;;;;;;;5040042;28;20041;-69
2021/10/06 08:46:29;;;;;;;3.00;2.57;;;;;;;;;;5045033;28;20211;-69
2021/10/06 08:48:56;;;;;;;3.75;2.50;;;;;;;;;;5043149;28;20077;-69
2021/10/06 08:51:22;;;;;;;7.00;2.45;;;;;;;;;;5041748;28;20607;-69
2021/10/06 08:53:49;;;;;;;4.65;2.25;;;;;;;;;;5042172;28;20063;-69
2021/10/06 08:56:16;;;;;;;3.70;2.35;;;;;;;;;;5045353;28;20144;-69
2021/10/06 08:58:43;;;;;;;7.75;2.40;;;;;;;;;;5039147;28;20718;-69
2021/10/06 09:01:23;;;;;;;2.00;1.50;;;;;;;;;;5027726;28;20145;-69
2021/10/06 09:04:00;;;;;;;9.38;2.13;;;;;;;;;;5041837;28;20081;-69
2021/10/06 09:06:31;;;;;;;1.77;1.65;;;;;;;;;;5045276;28;20137;-69
2021/10/06 09:08:57;;;;;;;4.78;1.70;;;;;;;;;;5046498;28;20131;-69
2021/10/06 09:11:30;;;;;;;3.40;1.70;;;;;;;;;;5043826;28;20076;-69
2021/10/06 09:13:58;;;;;;;3.30;1.52;;;;;;;;;;5047052;28;20088;-69
2021/10/06 09:16:25;;;;;;;2.40;1.50;;;;;;;;;;5054665;28;20566;-69
2021/10/06 09:18:51;;;;;;;2.20;1.23;;;;;;;;;;5068564;28;20585;-69
2021/10/06 09:21:18;;;;;;;3.15;1.40;;;;;;;;;;5064732;28;20215;-69
2021/10/06 09:23:46;;;;;;;5.20;1.50;;;;;;;;;;5063641;28;20076;-69
2021/10/06 09:26:13;;;;;;;6.05;1.40;;;;;;;;;;5070381;28;20174;-69
2021/10/06 09:28:40;;;;;;;;;;;;;;;;;;5065856;28;20123;-69
2021/10/06 09:31:17;;;;;;;2.80;1.42;;;;;;;;;;5058431;28;19927;-69
2021/10/06 09:33:45;;;;;;;2.92;1.63;;;;;;;;;;5058568;28;20178;-69
2021/10/06 09:36:11;;;;;;;4.82;1.65;;;;;;;;;;5045855;28;20147;-69
2021/10/06 09:38:42;;;;;;;3.03;1.60;;;;;;;;;;5061942;28;20547;-69
2021/10/06 09:41:25;;;;;;;6.88;1.73;;;;;;;;;;5058575;28;20132;-69
2021/10/06 09:43:58;;;;;;;4.93;1.60;;;;;;;;;;5065794;28;20207;-69
2021/10/06 09:46:46;;;;;;;3.40;1.35;;;;;;;;;;5064034;28;20047;-69
2021/10/06 09:49:28;;;;;;;6.85;1.50;;;;;;;;;;5064095;28;20131;-69
2021/10/06 09:52:13;;;;;;;2.80;1.40;;;;;;;;;;5064708;28;20044;-69
2021/10/06 09:54:40;;;;;;;3.40;1.23;;;;;;;;;;5064462;28;20087;-69
2021/10/06 09:57:07;;;;;;;7.07;1.50;;;;;;;;;;5061249;28;20124;-69
2021/10/06 09:59:33;;;;;;;3.47;1.30;;;;;;;;;;5062444;28;20072;-69
2021/10/06 10:02:00;;;;;;;3.30;1.15;;;;;;;;;;5060255;28;20076;-69
2021/10/06 10:04:27;;;;;;;2.22;1.23;;;;;;;;;;5066846;28;20048;-69
2021/10/06 10:06:55;;;;;;;2.35;1.60;;;;;;;;;;5067684;28;20080;-69
2021/10/06 10:09:21;;;;;;;3.90;1.02;;;;;;;;;;5066059;28;20152;-69
2021/10/06 10:11:51;;;;;;;2.53;1.37;;;;;;;;;;5065256;28;20098;-69
2021/10/06 10:14:17;;;;;;;1.10;1.00;;;;;;;;;;5064483;28;20144;-69
2021/10/06 10:16:44;;;;;;;1.98;0.88;;;;;;;;;;5065006;28;20579;-69
2021/10/06 10:19:11;;;;;;;1.65;1.27;;;;;;;;;;5063368;28;20128;-69
2021/10/06 10:21:40;;;;;;;4.78;1.10;;;;;;;;;;5068499;28;20512;-69
2021/10/06 10:24:10;;;;;;;3.72;1.30;;;;;;;;;;5063618;28;20164;-69
2021/10/06 10:26:37;;;;;;;5.20;1.17;;;;;;;;;;5066385;28;20099;-69
2021/10/06 10:29:23;;;;;;;3.65;0.98;;;;;;;;;;5058136;28;20155;-69
2021/10/06 10:32:06;;;;;;;1.75;0.70;;;;;;;;;;5061044;28;20504;-70
2021/10/06 10:34:51;;;;;;;2.20;0.80;;;;;;;;;;5063897;28;20103;-69
2021/10/06 10:37:18;;;;;;;3.03;0.77;;;;;;;;;;5066877;28;20136;-69
2021/10/06 10:39:49;;;;;;;2.25;0.82;;;;;;;;;;5065772;28;20163;-69
2021/10/06 10:42:15;;;;;;;2.90;1.30;;;;;;;;;;5067169;28;20080;-69
2021/10/06 10:44:44;;;;;;;1.88;0.98;;;;;;;;;;5069238;28;20071;-69
2021/10/06 10:47:10;;;;;;;3.88;0.90;;;;;;;;;;5069066;28;20504;-69
2021/10/06 10:49:44;;;;;;;0.98;0.70;;;;;;;;;;5065454;28;20131;-69
2021/10/06 10:52:11;;;;;;;1.48;1.02;;;;;;;;;;5058647;28;20080;-69
2021/10/06 10:54:42;;;;;;;2.10;0.95;;;;;;;;;;5060822;28;20102;-69
2021/10/06 10:57:22;;;;;;;2.83;1.13;;;;;;;;;;5066240;28;20472;-70
2021/10/06 10:59:50;;;;;;;1.80;1.00;;;;;;;;;;5063314;28;20053;-70
2021/10/06 11:02:17;;;;;;;2.15;1.20;;;;;;;;;;5064190;28;20135;-69
2021/10/06 11:04:45;;;;;;;1.30;0.88;;;;;;;;;;5064663;28;20044;-69
2021/10/06 11:07:12;;;;;;;4.25;1.40;;;;;;;;;;5065823;28;20135;-69
2021/10/06 11:09:39;;;;;;;;;;;;;;;;;;5066627;28;20080;-70
2021/10/06 11:12:05;;;;;;;0.77;0.77;;;;;;;;;;5065022;28;19956;-70
2021/10/06 11:14:34;;;;;;;1.00;0.90;;;;;;;;;;5067306;28;20083;-70
2021/10/06 11:17:06;;;;;;;2.40;0.95;;;;;;;;;;5066806;28;20366;-70
2021/10/06 11:19:37;;;;;;;2.83;1.20;;;;;;;;;;5058796;28;20131;-70
2021/10/06 11:22:22;;;;;;;4.35;0.90;;;;;;;;;;5061701;28;20045;-70
2021/10/06 11:24:49;;;;;;;1.33;1.02;;;;;;;;;;5064574;28;20127;-70
2021/10/06 11:27:16;;;;;;;2.00;1.05;;;;;;;;;;5063239;28;20049;-70
2021/10/06 11:29:42;;;;;;;2.47;0.95;;;;;;;;;;5061718;28;20052;-70
2021/10/06 11:32:09;;;;;;;1.10;1.00;;;;;;;;;;5065122;28;20466;-69
2021/10/06 11:34:49;;;;;;;4.55;1.00;;;;;;;;;;5067085;28;20891;-69
2021/10/06 11:37:16;;;;;;;1.30;0.90;;;;;;;;;;5063281;28;20076;-70
2021/10/06 11:39:43;;;;;;;2.83;1.20;;;;;;;;;;5058195;28;20412;-70
2021/10/06 11:42:09;;;;;;;1.27;1.17;;;;;;;;;;5056308;28;20044;-70
2021/10/06 11:44:36;;;;;;;3.37;1.17;;;;;;;;;;5065272;28;20132;-70
2021/10/06 11:47:06;;;;;;;2.17;1.30;;;;;;;;;;5061984;28;20481;-70
2021/10/06 11:49:34;;;;;;;2.30;1.20;;;;;;;;;;5066243;28;20127;-69
2021/10/06 11:52:01;;;;;;;1.17;1.00;;;;;;;;;;5062955;28;20584;-70
2021/10/06 11:54:27;;;;;;;2.72;1.10;;;;;;;;;;5062051;28;20667;-70
2021/10/06 11:56:55;;;;;;;4.35;1.40;;;;;;;;;;5065076;28;20132;-70
2021/10/06 11:59:27;;;;;;;2.28;1.60;;;;;;;;;;5063774;28;20127;-70
2021/10/06 12:01:55;;;;;;;4.15;1.30;;;;;;;;;;5063022;28;20135;-70
2021/10/06 12:04:23;;;;;;;2.65;1.40;;;;;;;;;;5067090;28;20097;-70
2021/10/06 12:06:50;;;;;;;;;;;;;;;;;;5058005;28;20082;-70
2021/10/06 12:09:16;;;;;;;5.90;1.70;;;;;;;;;;5065271;28;19982;-69
2021/10/06 12:11:44;;;;;;;2.70;1.50;;;;;;;;;;5061445;28;20135;-70
2021/10/06 12:14:27;;;;;;;3.40;1.58;;;;;;;;;;5060419;28;20053;-70
2021/10/06 12:17:15;;;;;;;9.02;1.77;;;;;;;;;;5063561;28;20135;-70
2021/10/06 12:19:51;;;;;;;3.30;1.60;;;;;;;;;;5064867;28;20469;-70
2021/10/06 12:22:18;;;;;;;6.22;1.92;;;;;;;;;;5063943;28;20393;-70
2021/10/06 12:24:44;;;;;;;3.97;1.42;;;;;;;;;;5065484;28;20103;-70
2021/10/06 12:27:23;;;;;;;2.70;1.55;;;;;;;;;;5065447;28;20072;-70
2021/10/06 12:30:02;;;;;;;2.08;1.50;;;;;;;;;;5063634;28;20071;-70
2021/10/06 12:32:30;;;;;;;2.65;1.58;;;;;;;;;;5060937;28;20123;-70
2021/10/06 12:35:07;;;;;;;2.25;1.58;;;;;;;;;;5056977;28;20128;-70
2021/10/06 12:37:33;;;;;;;3.58;1.73;;;;;;;;;;5057010;28;20128;-70
2021/10/06 12:40:00;;;;;;;1.70;1.58;;;;;;;;;;5062984;28;20836;-70
2021/10/06 12:42:26;;;;;;;3.08;1.65;;;;;;;;;;5065382;28;20079;-70
2021/10/06 12:44:53;;;;;;;2.92;1.58;;;;;;;;;;5061170;28;20132;-70
2021/10/06 12:47:21;;;;;;;4.50;1.80;;;;;;;;;;5061736;28;20171;-70
2021/10/06 12:49:48;;;;;;;3.40;1.45;;;;;;;;;;5063875;28;20488;-70
2021/10/06 12:52:25;;;;;;;2.42;1.73;;;;;;;;;;5064529;28;20131;-69
2021/10/06 12:55:08;;;;;;;5.85;2.00;;;;;;;;;;5059248;28;20128;-70
2021/10/06 12:57:35;;;;;;;2.67;1.80;;;;;;;;;;5062866;28;20052;-70
2021/10/06 13:00:04;;;;;;;4.60;1.77;;;;;;;;;;5061233;28;20071;-70
2021/10/06 13:02:31;;;;;;;3.13;1.75;;;;;;;;;;5065503;28;20072;-69
2021/10/06 13:04:57;;;;;;;2.90;1.75;;;;;;;;;;5065299;28;20060;-69
2021/10/06 13:07:24;;;;;;;3.63;1.53;;;;;;;;;;5060939;28;20107;-69
2021/10/06 13:09:50;;;;;;;3.00;1.90;;;;;;;;;;5064667;28;20649;-69
2021/10/06 13:12:17;;;;;;;6.18;2.03;;;;;;;;;;5064269;28;20139;-69
2021/10/06 13:14:44;;;;;;;4.93;2.10;;;;;;;;;;5061593;28;20084;-69
2021/10/06 13:17:11;;;;;;;2.35;1.95;;;;;;;;;;5061938;28;20136;-69
2021/10/06 13:19:37;;;;;;;2.88;2.00;;;;;;;;;;5061774;28;20080;-69
2021/10/06 13:22:04;;;;;;;7.10;2.40;;;;;;;;;;5060095;28;20128;-69
2021/10/06 13:24:31;;;;;;;3.65;1.77;;;;;;;;;;5058854;28;20076;-69
2021/10/06 13:26:58;;;;;;;3.63;2.00;;;;;;;;;;5064023;28;20103;-69
2021/10/06 13:29:25;;;;;;;2.95;1.85;;;;;;;;;;5065419;28;20132;-69
2021/10/06 13:31:53;;;;;;;2.40;1.70;;;;;;;;;;5058144;28;20167;-69
2021/10/06 13:34:22;;;;;;;4.03;1.80;;;;;;;;;;5061529;28;20603;-69
2021/10/06 13:36:49;;;;;;;4.90;1.92;;;;;;;;;;5066629;28;20106;-69
2021/10/06 13:39:16;;;;;;;3.35;1.73;;;;;;;;;;5061643;28;20131;-69
2021/10/06 13:41:42;;;;;;;4.20;1.60;;;;;;;;;;5057116;28;20084;-69
2021/10/06 13:44:09;;;;;;;5.47;1.83;;;;;;;;;;5065386;28;20076;-69
2021/10/06 13:46:35;;;;;;;4.57;1.90;;;;;;;;;;5070376;28;20113;-69
2021/10/06 13:49:02;;;;;;;5.90;1.77;;;;;;;;;;5063117;28;20495;-69
2021/10/06 13:51:29;;;;;;;5.00;1.40;;;;;;;;;;5070308;28;20132;-69
2021/10/06 13:53:56;;;;;;;3.67;1.65;;;;;;;;;;5065844;28;20054;-69
2021/10/06 13:56:23;;;;;;;3.75;1.88;;;;;;;;;;5059748;28;20041;-69
2021/10/06 13:58:49;;;;;;;4.63;2.03;;;;;;;;;;5063252;28;20102;-69
2021/10/06 14:01:16;;;;;;;2.83;2.03;;;;;;;;;;5065178;28;20136;-69
2021/10/06 14:03:43;;;;;;;6.03;1.90;;;;;;;;;;5065352;28;20942;-69
2021/10/06 14:06:10;;;;;;;6.63;2.20;;;;;;;;;;5065116;28;20136;-69
2021/10/06 14:08:37;;;;;;;2.10;1.90;;;;;;;;;;5064513;28;20131;-69
2021/10/06 14:11:03;;;;;;;7.40;2.10;;;;;;;;;;5067072;28;20128;-69
2021/10/06 14:13:30;;;;;;;8.07;1.87;;;;;;;;;;5065142;28;20132;-69
2021/10/06 14:15:57;;;;;;;10.90;2.47;;;;;;;;;;5062585;28;20080;-69
2021/10/06 14:18:23;;;;;;;4.25;2.47;;;;;;;;;;5057819;28;20135;-69
2021/10/06 14:20:51;;;;;;;2.70;2.37;;;;;;;;;;5060563;28;20132;-69
2021/10/06 14:23:18;;;;;;;6.35;2.22;;;;;;;;;;5064214;28;20131;-69
2021/10/06 14:25:44;;;;;;;4.45;2.35;;;;;;;;;;5066267;28;20344;-68
2021/10/06 14:28:11;;;;;;;6.90;3.07;;;;;;;;;;5063321;28;20056;-69
2021/10/06 14:30:37;;;;;;;2.90;2.50;;;;;;;;;;5060640;28;20152;-68
2021/10/06 14:33:04;;;;;;;5.03;2.77;;;;;;;;;;5061944;28;20477;-69
2021/10/06 14:35:30;;;;;;;6.95;2.80;;;;;;;;;;5064552;28;20095;-69
2021/10/06 14:37:57;;;;;;;5.40;3.33;;;;;;;;;;5062800;28;20767;-69
2021/10/06 14:40:24;;;;;;;8.60;3.65;;;;;;;;;;5063159;28;20067;-69
2021/10/06 14:42:50;;;;;;;7.05;3.90;;;;;;;;;;5061711;28;20075;-68